Time;durP1;ratioP1;P1;durP2;ratioP2;P2;SDS_P1;SDS_P2;PMS_P1;PMS_P2;Temp;Humidity;BMP_temperature;BMP_pressure;BME280_temperature;BME280_humidity;BME280_pressure;Samples;Min_cycle;Max_cycle;Signal;HPM_P1;HPM_P2
2023/02/19 00:01:15;;;;;;;0.20;0.20;;;;;;;11.24;79.76;101381.19;5035515;28;20120;-66
2023/02/19 00:03:42;;;;;;;0.20;0.20;;;;;;;11.21;79.79;101379.06;5036376;28;20026;-66
2023/02/19 00:06:09;;;;;;;0.20;0.20;;;;;;;11.20;80.51;101366.31;5035479;28;20034;-66
2023/02/19 00:08:37;;;;;;;0.20;0.20;;;;;;;11.19;80.21;101370.25;5036765;28;20045;-66
2023/02/19 00:11:05;;;;;;;0.20;0.20;;;;;;;11.25;80.00;101380.03;5036436;28;20041;-64
2023/02/19 00:13:35;;;;;;;0.30;0.30;;;;;;;11.30;79.79;101377.03;5036664;28;20056;-64
2023/02/19 00:16:08;;;;;;;0.20;0.20;;;;;;;11.27;80.20;101375.75;5036598;28;20029;-64
2023/02/19 00:18:36;;;;;;;0.20;0.20;;;;;;;11.17;80.79;101366.97;5036579;28;20026;-66
2023/02/19 00:21:03;;;;;;;0.20;0.20;;;;;;;11.15;80.80;101369.28;5035444;28;20030;-66
2023/02/19 00:23:28;;;;;;;0.20;0.20;;;;;;;11.16;81.33;101370.91;5035150;28;20030;-64
2023/02/19 00:25:56;;;;;;;0.20;0.20;;;;;;;11.10;80.59;101372.25;5035991;28;20090;-64
2023/02/19 00:28:22;;;;;;;0.20;0.20;;;;;;;11.07;80.81;101367.34;5035397;28;20052;-64
2023/02/19 00:30:48;;;;;;;0.20;0.20;;;;;;;11.05;80.12;101373.28;5035067;28;20496;-66
2023/02/19 00:33:14;;;;;;;0.20;0.20;;;;;;;11.08;80.24;101372.59;5035333;28;20140;-66
2023/02/19 00:35:42;;;;;;;0.20;0.20;;;;;;;11.06;79.49;101365.72;5036236;28;20025;-66
2023/02/19 00:38:07;;;;;;;0.20;0.20;;;;;;;11.07;79.59;101364.56;5035552;28;20025;-66
2023/02/19 00:40:33;;;;;;;0.20;0.20;;;;;;;11.09;79.95;101367.84;5034868;28;20473;-64
2023/02/19 00:43:00;;;;;;;0.20;0.20;;;;;;;11.11;79.80;101368.31;5035037;28;20033;-65
2023/02/19 00:45:26;;;;;;;0.20;0.20;;;;;;;11.11;79.27;101371.09;5034803;28;20117;-64
2023/02/19 00:47:52;;;;;;;0.20;0.20;;;;;;;11.10;79.36;101366.69;5035291;28;20156;-64
2023/02/19 00:50:20;;;;;;;0.20;0.20;;;;;;;11.12;79.31;101370.75;5034675;28;20029;-65
2023/02/19 00:52:46;;;;;;;0.20;0.20;;;;;;;11.10;79.50;101350.78;5035696;28;20025;-64
2023/02/19 00:55:11;;;;;;;0.20;0.20;;;;;;;11.11;79.50;101359.97;5034534;28;20140;-64
2023/02/19 00:57:37;;;;;;;0.20;0.20;;;;;;;11.13;79.70;101366.00;5034538;28;20030;-65
2023/02/19 01:00:03;;;;;;;0.20;0.20;;;;;;;11.21;79.24;101362.34;5034732;28;20034;-65
2023/02/19 01:02:29;;;;;;;0.20;0.20;;;;;;;11.16;78.78;101359.75;5034337;28;20432;-65
2023/02/19 01:04:54;;;;;;;0.20;0.20;;;;;;;11.12;79.13;101359.63;5034400;28;20037;-65
2023/02/19 01:07:20;;;;;;;0.20;0.20;;;;;;;11.17;79.00;101362.22;5034403;28;20065;-64
2023/02/19 01:09:45;;;;;;;0.20;0.20;;;;;;;11.16;78.78;101354.19;5034882;28;20025;-65
2023/02/19 01:12:11;;;;;;;0.20;0.20;;;;;;;11.12;77.48;101358.81;5034323;28;20102;-65
2023/02/19 01:14:36;;;;;;;0.25;0.25;;;;;;;11.22;76.36;101363.97;5034231;28;20040;-64
2023/02/19 01:17:03;;;;;;;0.25;0.25;;;;;;;11.14;76.07;101367.66;5034490;28;20096;-65
2023/02/19 01:19:30;;;;;;;0.20;0.20;;;;;;;11.27;74.33;101359.03;5034125;28;20064;-65
2023/02/19 01:21:58;;;;;;;0.20;0.20;;;;;;;11.21;72.89;101362.34;5034600;28;20025;-65
2023/02/19 01:24:25;;;;;;;0.28;0.28;;;;;;;11.27;71.06;101358.22;5034075;28;20041;-65
2023/02/19 01:26:51;;;;;;;0.20;0.20;;;;;;;11.20;69.42;101360.72;5034269;28;20479;-65
2023/02/19 01:29:16;;;;;;;0.20;0.20;;;;;;;11.25;68.81;101352.16;5034213;28;20030;-65
2023/02/19 01:31:42;;;;;;;0.20;0.20;;;;;;;11.20;69.31;101344.81;5033930;28;20419;-65
2023/02/19 01:34:10;;;;;;;0.20;0.20;;;;;;;11.20;68.99;101335.66;5035675;28;20037;-65
2023/02/19 01:36:36;;;;;;;0.20;0.20;;;;;;;11.26;68.38;101342.66;5034844;28;20026;-65
2023/02/19 01:39:04;;;;;;;0.20;0.20;;;;;;;11.47;67.24;101331.50;5034074;28;20480;-65
2023/02/19 01:41:33;;;;;;;0.20;0.20;;;;;;;11.62;65.01;101327.28;5033228;28;20033;-65
2023/02/19 01:44:06;;;;;;;0.20;0.20;;;;;;;11.49;65.97;101327.19;5033926;28;20033;-65
2023/02/19 01:46:37;;;;;;;0.20;0.20;;;;;;;11.76;65.77;101327.78;5033953;28;20372;-65
2023/02/19 01:49:27;;;;;;;0.20;0.20;;;;;;;11.71;67.52;101319.63;5034124;28;20029;-65
2023/02/19 01:52:12;;;;;;;0.20;0.20;;;;;;;11.59;69.85;101322.38;5034334;28;20021;-65
2023/02/19 01:54:41;;;;;;;0.20;0.20;;;;;;;11.53;71.10;101314.22;5034633;28;20036;-65
2023/02/19 01:57:14;;;;;;;0.20;0.20;;;;;;;11.52;72.87;101318.16;5033697;28;20460;-65
2023/02/19 01:59:42;;;;;;;0.20;0.20;;;;;;;11.55;74.61;101309.09;5033385;28;20036;-65
2023/02/19 02:02:10;;;;;;;0.20;0.20;;;;;;;11.48;76.06;101311.66;5033547;28;20025;-65
2023/02/19 02:04:36;;;;;;;0.20;0.20;;;;;;;11.37;76.64;101307.66;5033595;28;20072;-65
2023/02/19 02:10:18;;;;;;;0.20;0.20;;;;;;;11.41;77.51;101302.22;5033540;28;20021;-65
2023/02/19 02:12:57;;;;;;;0.20;0.20;;;;;;;11.35;79.92;101298.81;4953620;28;20035;-65
2023/02/19 02:15:28;;;;;;;0.20;0.20;;;;;;;11.35;80.83;101298.81;4954021;29;20043;-65
2023/02/19 02:18:34;;;;;;;0.20;0.20;;;;;;;11.39;80.56;101296.16;4985924;28;20038;-65
2023/02/19 02:21:21;;;;;;;0.20;0.20;;;;;;;11.40;80.71;101295.84;5033999;28;20099;-65
2023/02/19 02:24:08;;;;;;;0.20;0.20;;;;;;;11.27;82.22;101294.94;5032957;28;20029;-65
2023/02/19 02:27:11;;;;;;;0.20;0.20;;;;;;;11.32;82.96;101296.72;5033442;28;20124;-65
2023/02/19 02:29:54;;;;;;;0.20;0.20;;;;;;;11.28;83.65;101295.75;5033123;28;20031;-65
2023/02/19 02:32:32;;;;;;;0.20;0.20;;;;;;;11.08;84.47;101264.00;5033402;28;20483;-65
2023/02/19 02:35:07;;;;;;;0.20;0.20;;;;;;;11.42;85.73;101293.50;5032768;28;20120;-65
2023/02/19 02:37:37;;;;;;;0.20;0.20;;;;;;;11.30;86.27;101287.88;5033026;28;20059;-65
2023/02/19 02:40:07;;;;;;;0.20;0.20;;;;;;;11.22;87.52;101288.75;5033004;28;20025;-65
2023/02/19 02:42:34;;;;;;;0.20;0.20;;;;;;;11.34;88.68;101285.22;5032722;28;20556;-65
2023/02/19 02:45:35;;;;;;;0.20;0.20;;;;;;;11.20;89.25;101288.31;5033103;28;20033;-65
2023/02/19 02:48:07;;;;;;;0.20;0.20;;;;;;;11.17;89.45;101284.22;5032874;28;20053;-65
2023/02/19 02:51:04;;;;;;;0.20;0.20;;;;;;;11.11;90.73;101284.75;5032617;28;20040;-65
2023/02/19 02:56:24;;;;;;;0.20;0.20;;;;;;;10.97;92.73;101279.44;5033753;28;20072;-65
2023/02/19 02:58:52;;;;;;;0.20;0.20;;;;;;;10.96;93.61;101283.38;5032783;28;20380;-65
2023/02/19 03:04:21;;;;;;;0.20;0.20;;;;;;;10.98;92.50;101272.75;5034032;28;20442;-65
2023/02/19 03:06:49;;;;;;;0.20;0.20;;;;;;;11.00;92.49;101276.81;5032414;28;20029;-65
2023/02/19 03:09:21;;;;;;;0.20;0.20;;;;;;;10.97;91.84;101269.16;5032387;28;20521;-65
2023/02/19 03:20:30;;;;;;;0.20;0.20;;;;;;;11.05;92.83;101252.69;5033537;28;20039;-65
2023/02/19 03:22:59;;;;;;;0.20;0.20;;;;;;;11.11;93.16;101248.56;5032178;28;20040;-65
2023/02/19 03:28:16;;;;;;;0.20;0.20;;;;;;;10.77;96.01;101255.22;5037805;28;20044;-65
2023/02/19 03:30:54;;;;;;;0.20;0.20;;;;;;;10.66;96.79;101252.00;5036202;28;20072;-65
2023/02/19 03:33:28;;;;;;;0.28;0.28;;;;;;;10.65;97.43;101250.34;5036465;28;20052;-65
2023/02/19 03:36:03;;;;;;;0.20;0.20;;;;;;;10.56;98.23;101247.66;5036817;28;20469;-65
2023/02/19 03:38:46;;;;;;;0.20;0.20;;;;;;;10.58;98.59;101252.88;5037027;28;20427;-65
2023/02/19 03:41:20;;;;;;;0.30;0.30;;;;;;;10.41;98.95;101224.00;5037353;28;20349;-66
2023/02/19 03:44:02;;;;;;;0.30;0.30;;;;;;;10.56;99.20;101246.84;5035940;28;20041;-65
2023/02/19 03:46:55;;;;;;;0.20;0.20;;;;;;;10.58;99.51;101250.09;5037435;28;20482;-64
2023/02/19 03:49:39;;;;;;;0.30;0.30;;;;;;;10.59;99.07;101260.06;5027597;28;20041;-64
2023/02/19 03:52:20;;;;;;;0.20;0.20;;;;;;;10.66;99.61;101257.56;5036062;28;20080;-64
2023/02/19 03:55:03;;;;;;;0.30;0.30;;;;;;;10.74;99.05;101263.06;5035727;28;20562;-64
2023/02/19 03:57:48;;;;;;;0.20;0.20;;;;;;;10.68;98.56;101256.06;5035717;28;20072;-65
2023/02/19 04:00:19;;;;;;;0.20;0.20;;;;;;;10.65;98.18;101255.91;5035943;28;20033;-64
2023/02/19 04:03:01;;;;;;;0.25;0.25;;;;;;;10.70;98.06;101256.53;5035557;28;20033;-64
2023/02/19 04:05:30;;;;;;;0.20;0.20;;;;;;;10.70;97.18;101261.28;5036087;28;20478;-64
2023/02/19 04:08:18;;;;;;;0.20;0.20;;;;;;;10.66;97.58;101255.59;5036078;28;20025;-64
2023/02/19 04:10:46;;;;;;;0.20;0.20;;;;;;;10.67;97.31;101265.59;5037014;28;20033;-64
2023/02/19 04:13:21;;;;;;;0.20;0.20;;;;;;;10.72;97.38;101261.78;5035962;28;20461;-64
2023/02/19 04:15:52;;;;;;;0.20;0.20;;;;;;;10.68;97.27;101260.81;5036571;28;20105;-64
2023/02/19 04:18:25;;;;;;;0.20;0.20;;;;;;;10.65;97.87;101262.34;5035522;28;20028;-64
2023/02/19 04:20:51;;;;;;;0.20;0.20;;;;;;;10.62;97.80;101256.63;5035483;28;20464;-64
2023/02/19 04:23:23;;;;;;;0.30;0.30;;;;;;;10.65;98.31;101267.06;5035412;28;20021;-64
2023/02/19 04:25:58;;;;;;;0.20;0.20;;;;;;;10.59;97.98;101254.50;5035299;28;20029;-64
2023/02/19 04:28:23;;;;;;;0.20;0.20;;;;;;;10.61;97.64;101266.13;5035152;28;20021;-64
2023/02/19 04:30:49;;;;;;;0.20;0.20;;;;;;;10.58;98.30;101261.22;5034781;28;20029;-66
2023/02/19 04:33:14;;;;;;;0.20;0.20;;;;;;;10.58;97.91;101272.34;5035601;28;20033;-66
2023/02/19 04:35:42;;;;;;;0.30;0.30;;;;;;;10.54;98.55;101260.25;5034627;28;20472;-66
2023/02/19 04:38:12;;;;;;;0.20;0.20;;;;;;;10.53;98.91;101253.06;5035208;28;20029;-66
2023/02/19 04:40:38;;;;;;;0.20;0.20;;;;;;;10.53;98.70;101253.88;5035152;28;20385;-66
2023/02/19 04:43:05;;;;;;;0.20;0.20;;;;;;;10.52;99.31;101246.69;5035570;28;20025;-66
2023/02/19 04:45:31;;;;;;;0.20;0.20;;;;;;;10.53;98.87;101242.75;5034778;28;20036;-65
2023/02/19 04:47:57;;;;;;;0.20;0.20;;;;;;;10.53;99.32;101239.16;5034728;28;20025;-66
2023/02/19 04:50:23;;;;;;;0.20;0.20;;;;;;;10.54;99.61;101254.69;5036542;28;20029;-65
2023/02/19 04:52:49;;;;;;;0.20;0.20;;;;;;;10.57;99.13;101249.28;5034727;28;20029;-66
2023/02/19 04:55:15;;;;;;;0.20;0.20;;;;;;;10.68;98.39;101258.84;5034529;28;20057;-65
2023/02/19 04:57:42;;;;;;;0.20;0.20;;;;;;;10.70;98.26;101253.75;5035438;28;20025;-66
2023/02/19 05:00:09;;;;;;;0.20;0.20;;;;;;;10.66;98.32;101257.56;5034792;28;20033;-65
2023/02/19 05:02:34;;;;;;;0.30;0.30;;;;;;;10.70;99.00;101258.50;5035181;28;20103;-65
2023/02/19 05:05:02;;;;;;;0.20;0.20;;;;;;;10.61;98.87;101252.22;5035351;28;20120;-66
2023/02/19 05:07:27;;;;;;;0.20;0.20;;;;;;;10.60;99.55;101253.34;5037751;28;20107;-69
2023/02/19 05:09:53;;;;;;;0.30;0.30;;;;;;;10.59;99.24;101262.84;5037356;28;20076;-66
2023/02/19 05:12:20;;;;;;;0.20;0.20;;;;;;;10.56;100.00;101252.41;5036840;28;20036;-65
2023/02/19 05:14:46;;;;;;;0.20;0.20;;;;;;;10.57;100.00;101262.38;5036691;28;20036;-66
2023/02/19 05:17:11;;;;;;;0.20;0.20;;;;;;;10.58;99.93;101255.66;5037004;28;20030;-67
2023/02/19 05:19:37;;;;;;;0.20;0.20;;;;;;;10.55;100.00;101256.34;5035129;28;20116;-65
2023/02/19 05:22:02;;;;;;;0.20;0.20;;;;;;;10.56;100.00;101252.41;5034377;28;20025;-65
2023/02/19 05:24:28;;;;;;;0.20;0.20;;;;;;;10.49;99.95;101248.19;5034385;28;20099;-66
2023/02/19 05:26:56;;;;;;;0.20;0.20;;;;;;;10.49;100.00;101242.63;5034081;28;20029;-65
2023/02/19 05:29:24;;;;;;;0.20;0.20;;;;;;;10.52;100.00;101251.44;5034829;28;20386;-66
2023/02/19 05:31:49;;;;;;;0.20;0.20;;;;;;;10.47;100.00;101250.47;5034226;28;20057;-65
2023/02/19 05:34:15;;;;;;;0.20;0.20;;;;;;;10.46;100.00;101243.28;5033886;28;20053;-65
2023/02/19 05:36:40;;;;;;;0.20;0.20;;;;;;;10.40;100.00;101244.63;5034408;28;20037;-65
2023/02/19 05:39:08;;;;;;;0.20;0.20;;;;;;;10.39;100.00;101243.00;5033787;28;20033;-66
2023/02/19 05:41:33;;;;;;;0.20;0.20;;;;;;;10.55;100.00;101239.66;5032994;28;20476;-65
2023/02/19 05:44:02;;;;;;;0.20;0.20;;;;;;;10.57;100.00;101240.09;5032790;28;20099;-65
2023/02/19 05:46:29;;;;;;;0.20;0.20;;;;;;;10.56;100.00;101244.88;5034217;28;20156;-65
2023/02/19 05:48:54;;;;;;;0.20;0.20;;;;;;;10.56;100.00;101246.84;5032939;28;20547;-65
2023/02/19 05:51:23;;;;;;;0.20;0.20;;;;;;;10.50;100.00;101246.22;5033597;28;20060;-65
2023/02/19 05:53:50;;;;;;;0.20;0.20;;;;;;;10.49;100.00;101258.47;5033824;28;20037;-65
2023/02/19 05:56:18;;;;;;;0.20;0.20;;;;;;;10.51;100.00;101252.59;5033148;28;20463;-65
2023/02/19 05:58:46;;;;;;;0.20;0.20;;;;;;;10.47;100.00;101250.47;5034061;28;20392;-65
2023/02/19 06:01:16;;;;;;;0.22;0.22;;;;;;;10.47;100.00;101256.03;5033627;28;20026;-65
2023/02/19 06:03:42;;;;;;;0.20;0.20;;;;;;;10.47;100.00;101252.44;5034709;28;20439;-65
2023/02/19 06:06:11;;;;;;;0.20;0.20;;;;;;;10.44;100.00;101256.72;5033267;28;20041;-65
2023/02/19 06:08:37;;;;;;;0.20;0.20;;;;;;;10.45;100.00;101247.22;5033208;28;20026;-65
2023/02/19 06:11:02;;;;;;;0.30;0.30;;;;;;;10.45;100.00;101252.78;5033767;28;20048;-66
2023/02/19 06:13:30;;;;;;;0.20;0.20;;;;;;;10.50;100.00;101254.56;5034190;28;20052;-65
2023/02/19 06:15:56;;;;;;;0.25;0.25;;;;;;;10.47;100.00;101253.25;5027766;28;20041;-66
2023/02/19 06:18:21;;;;;;;0.20;0.20;;;;;;;10.34;100.00;101225.69;5031730;28;20393;-66
2023/02/19 06:20:47;;;;;;;0.20;0.20;;;;;;;10.49;100.00;101250.13;5032904;28;20021;-66
2023/02/19 06:23:14;;;;;;;0.20;0.20;;;;;;;10.52;100.00;101262.56;5033251;28;20125;-66
2023/02/19 06:25:40;;;;;;;0.20;0.20;;;;;;;10.50;100.00;101260.13;5033228;28;20030;-66
2023/02/19 06:28:08;;;;;;;0.20;0.20;;;;;;;10.53;100.00;101265.00;5033216;28;20388;-65
2023/02/19 06:30:34;;;;;;;0.20;0.20;;;;;;;10.55;100.00;101264.69;5032852;28;20083;-65
2023/02/19 06:32:59;;;;;;;0.20;0.20;;;;;;;10.52;100.00;101268.13;5032838;28;20120;-66
2023/02/19 06:35:25;;;;;;;0.20;0.20;;;;;;;10.49;100.00;101264.88;5033359;28;20028;-66
2023/02/19 06:37:50;;;;;;;0.20;0.20;;;;;;;10.52;100.00;101259.78;5032930;28;20377;-65
2023/02/19 06:40:16;;;;;;;0.20;0.20;;;;;;;10.50;100.00;101260.13;5032742;28;20476;-65
2023/02/19 06:42:41;;;;;;;0.20;0.20;;;;;;;10.52;100.00;101270.91;5032633;28;20032;-65
2023/02/19 06:45:09;;;;;;;0.20;0.20;;;;;;;10.47;100.00;101260.78;5033299;28;20116;-66
2023/02/19 06:47:35;;;;;;;0.20;0.20;;;;;;;10.51;100.00;101266.50;5032662;28;20039;-66
2023/02/19 06:50:01;;;;;;;0.20;0.20;;;;;;;10.52;100.00;101268.94;5032912;28;20116;-66
2023/02/19 06:52:26;;;;;;;0.20;0.20;;;;;;;10.52;100.00;101273.69;5032546;28;20468;-65
2023/02/19 06:54:52;;;;;;;0.20;0.20;;;;;;;10.82;100.00;101266.16;5032866;28;20095;-65
2023/02/19 06:57:18;;;;;;;0.20;0.20;;;;;;;10.70;100.00;101269.66;5016584;28;20053;-65
2023/02/19 06:59:45;;;;;;;0.30;0.30;;;;;;;10.65;100.00;101278.19;5032199;28;20503;-66
2023/02/19 07:02:11;;;;;;;0.20;0.20;;;;;;;10.55;100.00;101267.47;5033386;28;20021;-65
2023/02/19 07:04:39;;;;;;;0.20;0.20;;;;;;;10.69;100.00;101276.38;5032451;28;20091;-66
2023/02/19 07:07:05;;;;;;;0.20;0.20;;;;;;;10.70;100.00;101270.47;5032419;28;20476;-65
2023/02/19 07:09:31;;;;;;;0.20;0.20;;;;;;;10.64;100.00;101271.81;5032936;28;20030;-65
2023/02/19 07:11:59;;;;;;;0.20;0.20;;;;;;;10.57;100.00;101271.53;5032930;28;20053;-64
2023/02/19 07:14:27;;;;;;;0.20;0.20;;;;;;;10.49;100.00;101262.09;5032605;28;20061;-66
2023/02/19 07:16:52;;;;;;;0.20;0.20;;;;;;;10.49;100.00;101269.59;5032314;28;20112;-66
2023/02/19 07:19:18;;;;;;;0.30;0.30;;;;;;;10.55;100.00;101273.03;5033845;28;20109;-66
2023/02/19 07:21:43;;;;;;;0.20;0.20;;;;;;;10.58;100.00;101272.34;5032216;28;20033;-66
2023/02/19 07:24:09;;;;;;;0.30;0.30;;;;;;;10.64;100.00;101276.56;5032541;28;20029;-66
2023/02/19 07:26:35;;;;;;;0.20;0.20;;;;;;;10.69;100.00;101276.38;5032845;28;20025;-66
2023/02/19 07:29:01;;;;;;;0.20;0.20;;;;;;;10.71;100.00;101272.13;5032724;28;20036;-66
2023/02/19 07:31:27;;;;;;;0.20;0.20;;;;;;;10.74;100.00;101265.03;5033444;28;20033;-66
2023/02/19 07:33:53;;;;;;;0.20;0.20;;;;;;;10.80;100.00;101271.22;5032477;28;20029;-66
2023/02/19 07:36:21;;;;;;;0.20;0.20;;;;;;;10.86;100.00;101267.91;5033432;28;20021;-65
2023/02/19 07:38:51;;;;;;;0.20;0.20;;;;;;;10.97;100.00;101268.31;5032440;28;20029;-66
2023/02/19 07:41:19;;;;;;;0.20;0.20;;;;;;;10.85;100.00;101254.31;5033296;28;20091;-65
2023/02/19 07:43:44;;;;;;;0.20;0.20;;;;;;;10.87;100.00;101261.19;5032104;28;20029;-65
2023/02/19 07:46:12;;;;;;;0.20;0.20;;;;;;;10.87;100.00;101257.59;5032562;28;20029;-65
2023/02/19 07:48:41;;;;;;;0.20;0.20;;;;;;;10.79;100.00;101252.91;5033031;28;20491;-65
2023/02/19 07:51:11;;;;;;;0.20;0.20;;;;;;;10.78;100.00;101254.88;5032040;28;20154;-65
2023/02/19 07:53:36;;;;;;;0.20;0.20;;;;;;;10.82;100.00;101258.63;5032334;28;20380;-65
2023/02/19 07:56:04;;;;;;;0.20;0.20;;;;;;;10.95;100.00;101257.50;5031558;28;20049;-70
2023/02/19 07:58:30;;;;;;;0.20;0.20;;;;;;;10.85;100.00;101246.78;5032264;28;20483;-72
2023/02/19 08:01:14;;;;;;;0.20;0.20;;;;;;;10.89;100.00;101258.06;5031430;28;20048;-66
2023/02/19 08:03:40;;;;;;;0.20;0.20;;;;;;;10.91;100.00;101256.56;5031952;28;20037;-66
2023/02/19 08:06:06;;;;;;;0.20;0.20;;;;;;;10.93;100.00;101251.47;5033135;28;20622;-66
2023/02/19 08:08:32;;;;;;;0.20;0.20;;;;;;;10.77;100.00;101222.63;5033450;28;20112;-66
2023/02/19 08:13:49;;;;;;;0.20;0.20;;;;;;;10.84;100.00;101247.94;5036993;28;20032;-66
2023/02/19 08:16:18;;;;;;;0.20;0.20;;;;;;;10.82;100.00;101244.69;5035921;28;20033;-65
2023/02/19 08:18:49;;;;;;;0.30;0.30;;;;;;;10.94;100.00;101252.28;5036591;28;20107;-66
2023/02/19 08:21:19;;;;;;;0.20;0.20;;;;;;;10.83;100.00;101245.50;5035501;28;20092;-65
2023/02/19 08:23:48;;;;;;;0.20;0.20;;;;;;;10.85;100.00;101246.78;5035239;28;20075;-65
2023/02/19 08:26:14;;;;;;;0.20;0.20;;;;;;;11.00;100.00;101251.75;5036737;28;20033;-66
2023/02/19 08:28:40;;;;;;;0.28;0.28;;;;;;;10.89;100.00;101238.56;5035471;28;20097;-66
2023/02/19 08:31:07;;;;;;;0.20;0.20;;;;;;;10.91;100.00;101251.00;5036721;28;20087;-66
2023/02/19 08:33:33;;;;;;;0.22;0.22;;;;;;;10.95;100.00;101248.34;5035863;28;20408;-65
2023/02/19 08:36:07;;;;;;;0.20;0.20;;;;;;;10.97;100.00;101255.22;5035299;28;20032;-65
2023/02/19 08:38:36;;;;;;;0.20;0.20;;;;;;;11.00;100.00;101248.97;5036205;28;20025;-65
2023/02/19 08:41:13;;;;;;;0.20;0.20;;;;;;;11.00;100.00;101246.19;5034831;28;20021;-66
2023/02/19 08:43:42;;;;;;;0.20;0.20;;;;;;;10.98;100.00;101245.72;5035883;28;20435;-66
2023/02/19 08:46:09;;;;;;;0.20;0.20;;;;;;;11.09;100.00;101242.53;5034832;28;20065;-66
2023/02/19 08:48:35;;;;;;;0.20;0.20;;;;;;;11.10;100.00;101235.78;5035412;28;20025;-65
2023/02/19 08:51:04;;;;;;;0.20;0.20;;;;;;;10.98;100.00;101242.94;5035271;28;20029;-66
2023/02/19 08:53:31;;;;;;;0.20;0.20;;;;;;;11.09;100.00;101248.09;5034680;28;20037;-66
2023/02/19 08:55:56;;;;;;;0.22;0.22;;;;;;;11.13;100.00;101235.09;5035765;28;20053;-65
2023/02/19 08:58:25;;;;;;;0.20;0.20;;;;;;;11.05;100.00;101241.56;5034926;28;20025;-65
2023/02/19 09:00:50;;;;;;;0.20;0.20;;;;;;;11.05;100.00;101242.38;5035077;28;20044;-65
2023/02/19 09:03:16;;;;;;;0.20;0.20;;;;;;;11.05;100.00;101241.56;5034667;28;20025;-65
2023/02/19 09:05:41;;;;;;;0.20;0.20;;;;;;;11.00;100.00;101235.03;5034712;28;20073;-65
2023/02/19 09:08:11;;;;;;;0.20;0.20;;;;;;;11.00;100.00;101234.22;5018173;28;20030;-65
2023/02/19 09:10:37;;;;;;;0.22;0.22;;;;;;;11.08;100.00;101229.72;5035879;28;20029;-65
2023/02/19 09:13:04;;;;;;;0.20;0.20;;;;;;;11.06;100.00;101238.44;5034599;28;20024;-65
2023/02/19 09:15:32;;;;;;;0.20;0.20;;;;;;;11.16;100.00;101240.00;5034570;28;20025;-67
2023/02/19 09:17:58;;;;;;;0.20;0.20;;;;;;;11.21;100.00;101239.78;5034587;28;20029;-65
2023/02/19 09:20:26;;;;;;;0.20;0.20;;;;;;;11.21;100.00;101245.34;5034205;28;20021;-65
2023/02/19 09:22:56;;;;;;;0.20;0.20;;;;;;;11.11;100.00;101240.19;5033863;28;20022;-65
2023/02/19 09:25:21;;;;;;;0.25;0.25;;;;;;;11.25;100.00;101247.13;5035357;28;20087;-65
2023/02/19 09:27:49;;;;;;;0.20;0.20;;;;;;;11.31;100.00;101244.94;5033783;28;20476;-65
2023/02/19 09:30:14;;;;;;;0.30;0.30;;;;;;;11.26;100.00;101242.34;5034102;28;20614;-65
2023/02/19 09:32:47;;;;;;;0.22;0.22;;;;;;;11.32;100.00;101235.41;5034201;28;20018;-65
2023/02/19 09:35:13;;;;;;;0.20;0.20;;;;;;;11.47;100.00;101234.78;5034572;28;20045;-65
2023/02/19 09:37:41;;;;;;;0.20;0.20;;;;;;;11.54;100.00;101242.56;5034551;28;20472;-65
2023/02/19 09:40:07;;;;;;;0.25;0.25;;;;;;;11.43;100.00;101236.63;5035713;28;20124;-65
2023/02/19 09:42:33;;;;;;;0.20;0.20;;;;;;;11.51;100.00;101238.50;5034748;28;20483;-65
2023/02/19 09:45:00;;;;;;;0.20;0.20;;;;;;;11.57;100.00;101235.50;5033693;28;20033;-65
2023/02/19 09:47:29;;;;;;;0.20;0.20;;;;;;;11.63;100.00;101245.28;5033915;28;20056;-65
2023/02/19 09:50:25;;;;;;;0.20;0.20;;;;;;;11.73;100.00;101228.13;5033640;28;20033;-65
2023/02/19 09:52:57;;;;;;;0.20;0.20;;;;;;;11.81;100.00;101227.19;5032315;28;20041;-65
2023/02/19 09:55:35;;;;;;;0.20;0.20;;;;;;;11.69;100.00;101233.56;5033368;28;20060;-65
2023/02/19 09:58:10;;;;;;;0.20;0.20;;;;;;;11.94;100.00;101230.84;5033742;28;20120;-65
2023/02/19 10:00:38;;;;;;;0.30;0.30;;;;;;;11.70;100.00;101235.19;5033693;28;20492;-65
2023/02/19 10:03:09;;;;;;;0.30;0.30;;;;;;;11.84;100.00;101229.31;5033610;28;20112;-65
2023/02/19 10:05:38;;;;;;;0.20;0.20;;;;;;;11.87;100.00;101227.81;5033924;28;20036;-65
2023/02/19 10:08:08;;;;;;;0.25;0.25;;;;;;;11.78;100.00;101227.88;5033576;28;20057;-65
2023/02/19 10:10:35;;;;;;;0.20;0.20;;;;;;;11.80;100.00;101229.16;5033275;28;20037;-65
2023/02/19 10:13:25;;;;;;;0.20;0.20;;;;;;;11.95;100.00;101219.34;5033210;28;20033;-65
2023/02/19 10:15:56;;;;;;;0.20;0.20;;;;;;;11.92;100.00;101225.59;5033694;28;20033;-65
2023/02/19 10:18:24;;;;;;;0.20;0.20;;;;;;;11.93;100.00;101226.41;5033396;28;20120;-65
2023/02/19 10:20:51;;;;;;;0.20;0.20;;;;;;;11.88;100.00;101224.69;5033586;28;20036;-65
2023/02/19 10:23:16;;;;;;;0.20;0.20;;;;;;;12.02;100.00;101227.94;5033202;28;20083;-65
2023/02/19 10:25:48;;;;;;;0.30;0.30;;;;;;;12.11;100.00;101221.44;5033512;28;20475;-65
2023/02/19 10:28:17;;;;;;;0.30;0.30;;;;;;;12.15;100.00;101216.81;5034246;28;20040;-66
2023/02/19 10:30:46;;;;;;;0.20;0.20;;;;;;;12.34;100.00;101230.97;5033442;28;20076;-66
2023/02/19 10:33:14;;;;;;;0.20;0.20;;;;;;;12.29;100.00;101223.66;5032508;28;20522;-65
2023/02/19 10:35:58;;;;;;;0.30;0.30;;;;;;;12.18;100.00;101216.09;5032686;28;20040;-66
2023/02/19 10:38:37;;;;;;;0.20;0.20;;;;;;;12.16;100.00;101224.00;5033614;28;20032;-65
2023/02/19 10:41:16;;;;;;;0.20;0.20;;;;;;;11.99;100.00;101186.81;5033165;28;20079;-66
2023/02/19 10:43:50;;;;;;;0.20;0.20;;;;;;;12.21;100.00;101201.47;5033671;28;20032;-67
2023/02/19 10:46:41;;;;;;;0.20;0.20;;;;;;;12.34;100.00;101214.22;5034396;28;20121;-66
2023/02/19 10:49:29;;;;;;;0.20;0.20;;;;;;;12.33;100.00;101210.63;5034570;28;20042;-66
2023/02/19 10:52:01;;;;;;;0.20;0.20;;;;;;;12.47;100.00;101204.69;5036149;28;20369;-67
2023/02/19 10:54:33;;;;;;;0.20;0.20;;;;;;;12.30;100.00;101202.13;5035788;28;20080;-68
2023/02/19 10:57:14;;;;;;;0.20;0.20;;;;;;;12.40;100.00;101196.06;5034500;28;20029;-66
2023/02/19 10:59:52;;;;;;;0.30;0.30;;;;;;;12.39;100.00;101202.84;5035057;28;20468;-68
2023/02/19 11:02:20;;;;;;;0.20;0.20;;;;;;;12.67;100.00;101193.72;5034646;28;20056;-66
2023/02/19 11:05:08;;;;;;;0.20;0.20;;;;;;;12.73;100.00;101187.53;5037005;28;20026;-65
2023/02/19 11:07:36;;;;;;;0.20;0.20;;;;;;;12.81;100.00;101192.16;5033150;28;20449;-65
2023/02/19 11:10:05;;;;;;;0.20;0.20;;;;;;;12.79;100.00;101190.91;5032369;28;20040;-65
2023/02/19 11:12:33;;;;;;;0.20;0.20;;;;;;;12.73;100.00;101181.97;5033644;28;20033;-65
2023/02/19 11:15:22;;;;;;;0.20;0.20;;;;;;;12.83;100.00;101184.22;5032323;28;20539;-65
2023/02/19 11:18:22;;;;;;;0.20;0.20;;;;;;;12.83;100.00;101187.03;5032803;28;20030;-66
2023/02/19 11:20:59;;;;;;;0.20;0.20;;;;;;;12.77;100.00;101179.25;5033450;28;20018;-66
2023/02/19 11:23:36;;;;;;;0.20;0.20;;;;;;;12.86;100.00;101177.16;5034122;28;20096;-66
2023/02/19 11:26:18;;;;;;;0.20;0.20;;;;;;;12.92;100.00;101175.72;5032820;28;20037;-65
2023/02/19 11:28:46;;;;;;;0.20;0.20;;;;;;;12.85;98.96;101169.94;5032218;28;20029;-66
2023/02/19 11:31:30;;;;;;;0.20;0.20;;;;;;;12.83;99.80;101175.03;5033523;28;20507;-66
2023/02/19 11:34:05;;;;;;;0.20;0.20;;;;;;;12.90;99.33;101169.69;5032167;28;20037;-66
2023/02/19 11:36:36;;;;;;;0.20;0.20;;;;;;;12.97;97.19;101169.06;5032447;28;20033;-65
2023/02/19 11:39:14;;;;;;;0.20;0.20;;;;;;;12.88;96.73;101166.41;5032111;28;20030;-65
2023/02/19 11:41:58;;;;;;;0.20;0.20;;;;;;;12.90;97.16;101155.72;5032542;28;20447;-66
2023/02/19 11:44:37;;;;;;;0.20;0.20;;;;;;;12.98;96.62;101153.94;5032959;28;20033;-65
2023/02/19 11:47:43;;;;;;;0.20;0.20;;;;;;;12.99;97.25;101152.75;5035065;28;20040;-65
2023/02/19 11:50:27;;;;;;;0.20;0.20;;;;;;;12.94;96.18;101141.84;5035879;28;20068;-65
2023/02/19 11:53:22;;;;;;;0.20;0.20;;;;;;;12.93;96.85;101129.84;5036182;28;20029;-65
2023/02/19 11:56:12;;;;;;;0.20;0.20;;;;;;;12.95;96.01;101138.72;5036135;28;20057;-65
2023/02/19 11:58:46;;;;;;;0.20;0.20;;;;;;;12.94;96.46;101137.06;5036304;28;20029;-65
2023/02/19 12:01:49;;;;;;;0.20;0.20;;;;;;;13.02;96.15;101133.31;5036123;28;20061;-65